sensor_id;sensor_type;location;lat;lon;timestamp;temperature;humidity
9984;DHT22;16737;50.932;6.780;2024-01-30T00:02:16;11.00;92.00
9984;DHT22;16737;50.932;6.780;2024-01-30T00:04:44;11.00;92.00
9984;DHT22;16737;50.932;6.780;2024-01-30T00:07:11;10.90;92.00
9984;DHT22;16737;50.932;6.780;2024-01-30T00:09:38;10.90;92.00
9984;DHT22;16737;50.932;6.780;2024-01-30T00:12:06;10.90;92.00
9984;DHT22;16737;50.932;6.780;2024-01-30T00:14:33;10.80;92.00
9984;DHT22;16737;50.932;6.780;2024-01-30T00:17:01;10.80;92.00
9984;DHT22;16737;50.932;6.780;2024-01-30T00:19:28;10.80;92.10
9984;DHT22;16737;50.932;6.780;2024-01-30T00:21:56;10.80;92.10
9984;DHT22;16737;50.932;6.780;2024-01-30T00:24:23;10.80;92.20
9984;DHT22;16737;50.932;6.780;2024-01-30T00:26:50;10.70;92.20
9984;DHT22;16737;50.932;6.780;2024-01-30T00:29:17;10.70;92.20
9984;DHT22;16737;50.932;6.780;2024-01-30T00:31:45;10.70;92.40
9984;DHT22;16737;50.932;6.780;2024-01-30T00:34:12;10.70;92.40
9984;DHT22;16737;50.932;6.780;2024-01-30T00:36:39;10.70;92.40
9984;DHT22;16737;50.932;6.780;2024-01-30T00:39:07;10.70;92.40
9984;DHT22;16737;50.932;6.780;2024-01-30T00:41:35;10.70;92.40
9984;DHT22;16737;50.932;6.780;2024-01-30T00:44:02;10.70;92.40
9984;DHT22;16737;50.932;6.780;2024-01-30T00:46:31;10.60;92.40
9984;DHT22;16737;50.932;6.780;2024-01-30T00:48:58;10.60;92.50
9984;DHT22;16737;50.932;6.780;2024-01-30T00:51:25;10.60;92.60
9984;DHT22;16737;50.932;6.780;2024-01-30T00:53:55;10.60;92.60
9984;DHT22;16737;50.932;6.780;2024-01-30T00:56:23;10.60;92.60
9984;DHT22;16737;50.932;6.780;2024-01-30T00:58:50;10.60;92.70
9984;DHT22;16737;50.932;6.780;2024-01-30T01:01:17;10.60;92.70
9984;DHT22;16737;50.932;6.780;2024-01-30T01:03:44;10.60;92.70
9984;DHT22;16737;50.932;6.780;2024-01-30T01:06:12;10.70;92.80
9984;DHT22;16737;50.932;6.780;2024-01-30T01:08:39;10.60;92.70
9984;DHT22;16737;50.932;6.780;2024-01-30T01:11:07;10.60;92.70
9984;DHT22;16737;50.932;6.780;2024-01-30T01:13:36;10.60;92.70
9984;DHT22;16737;50.932;6.780;2024-01-30T01:16:03;10.60;92.70
9984;DHT22;16737;50.932;6.780;2024-01-30T01:18:30;10.60;92.70
9984;DHT22;16737;50.932;6.780;2024-01-30T01:20:57;10.60;92.70
9984;DHT22;16737;50.932;6.780;2024-01-30T01:23:26;10.60;92.80
9984;DHT22;16737;50.932;6.780;2024-01-30T01:25:53;10.60;92.80
9984;DHT22;16737;50.932;6.780;2024-01-30T01:28:20;10.50;92.80
9984;DHT22;16737;50.932;6.780;2024-01-30T01:30:49;10.50;92.80
9984;DHT22;16737;50.932;6.780;2024-01-30T01:33:17;10.50;92.90
9984;DHT22;16737;50.932;6.780;2024-01-30T01:35:44;10.50;92.90
9984;DHT22;16737;50.932;6.780;2024-01-30T01:38:11;10.50;93.00
9984;DHT22;16737;50.932;6.780;2024-01-30T01:40:38;10.50;93.00
9984;DHT22;16737;50.932;6.780;2024-01-30T01:43:06;10.50;93.00
9984;DHT22;16737;50.932;6.780;2024-01-30T01:45:33;10.50;93.00
9984;DHT22;16737;50.932;6.780;2024-01-30T01:48:02;10.50;93.00
9984;DHT22;16737;50.932;6.780;2024-01-30T01:50:30;10.50;93.10
9984;DHT22;16737;50.932;6.780;2024-01-30T01:52:58;10.50;93.10
9984;DHT22;16737;50.932;6.780;2024-01-30T01:55:26;10.50;93.10
9984;DHT22;16737;50.932;6.780;2024-01-30T01:57:53;10.50;93.10
9984;DHT22;16737;50.932;6.780;2024-01-30T02:00:22;10.50;93.10
9984;DHT22;16737;50.932;6.780;2024-01-30T02:02:50;10.50;93.10
9984;DHT22;16737;50.932;6.780;2024-01-30T02:05:21;10.50;93.20
9984;DHT22;16737;50.932;6.780;2024-01-30T02:07:48;10.50;93.20
9984;DHT22;16737;50.932;6.780;2024-01-30T02:10:16;10.50;93.20
9984;DHT22;16737;50.932;6.780;2024-01-30T02:12:43;10.50;93.30
9984;DHT22;16737;50.932;6.780;2024-01-30T02:15:16;10.50;93.30
9984;DHT22;16737;50.932;6.780;2024-01-30T02:17:43;10.50;93.50
9984;DHT22;16737;50.932;6.780;2024-01-30T02:20:11;10.50;93.30
9984;DHT22;16737;50.932;6.780;2024-01-30T02:22:43;10.60;93.40
9984;DHT22;16737;50.932;6.780;2024-01-30T02:25:10;10.60;93.40
9984;DHT22;16737;50.932;6.780;2024-01-30T02:27:37;10.60;93.40
9984;DHT22;16737;50.932;6.780;2024-01-30T02:30:05;10.60;93.40
9984;DHT22;16737;50.932;6.780;2024-01-30T02:32:33;10.60;93.40
9984;DHT22;16737;50.932;6.780;2024-01-30T02:35:00;10.60;93.40
9984;DHT22;16737;50.932;6.780;2024-01-30T02:37:26;10.50;93.30
9984;DHT22;16737;50.932;6.780;2024-01-30T02:39:55;10.50;93.30
9984;DHT22;16737;50.932;6.780;2024-01-30T02:42:22;10.50;93.40
9984;DHT22;16737;50.932;6.780;2024-01-30T02:44:49;10.50;93.30
9984;DHT22;16737;50.932;6.780;2024-01-30T02:47:18;10.50;93.40
9984;DHT22;16737;50.932;6.780;2024-01-30T02:49:46;10.50;93.30
9984;DHT22;16737;50.932;6.780;2024-01-30T02:52:12;10.50;93.30
9984;DHT22;16737;50.932;6.780;2024-01-30T02:54:39;10.40;93.30
9984;DHT22;16737;50.932;6.780;2024-01-30T02:57:08;10.40;93.20
9984;DHT22;16737;50.932;6.780;2024-01-30T02:59:35;10.40;93.30
9984;DHT22;16737;50.932;6.780;2024-01-30T03:02:02;10.40;93.30
9984;DHT22;16737;50.932;6.780;2024-01-30T03:04:29;10.30;93.30
9984;DHT22;16737;50.932;6.780;2024-01-30T03:06:56;10.30;93.30
9984;DHT22;16737;50.932;6.780;2024-01-30T03:09:23;10.20;93.30
9984;DHT22;16737;50.932;6.780;2024-01-30T03:11:50;10.20;93.40
9984;DHT22;16737;50.932;6.780;2024-01-30T03:14:21;10.20;93.40
9984;DHT22;16737;50.932;6.780;2024-01-30T03:16:48;10.20;93.50
9984;DHT22;16737;50.932;6.780;2024-01-30T03:19:15;10.20;93.50
9984;DHT22;16737;50.932;6.780;2024-01-30T03:21:42;10.20;93.50
9984;DHT22;16737;50.932;6.780;2024-01-30T03:24:09;10.20;93.50
9984;DHT22;16737;50.932;6.780;2024-01-30T03:26:36;10.20;93.60
9984;DHT22;16737;50.932;6.780;2024-01-30T03:29:03;10.20;93.60
9984;DHT22;16737;50.932;6.780;2024-01-30T03:31:32;10.20;93.60
9984;DHT22;16737;50.932;6.780;2024-01-30T03:33:59;10.20;93.70
9984;DHT22;16737;50.932;6.780;2024-01-30T03:36:26;10.10;93.70
9984;DHT22;16737;50.932;6.780;2024-01-30T03:38:53;10.10;93.70
9984;DHT22;16737;50.932;6.780;2024-01-30T03:41:20;10.20;93.70
9984;DHT22;16737;50.932;6.780;2024-01-30T03:43:47;10.20;93.70
9984;DHT22;16737;50.932;6.780;2024-01-30T03:46:14;10.20;93.70
9984;DHT22;16737;50.932;6.780;2024-01-30T03:48:42;10.20;93.70
9984;DHT22;16737;50.932;6.780;2024-01-30T03:51:10;10.20;93.80
9984;DHT22;16737;50.932;6.780;2024-01-30T03:53:39;10.20;93.70
9984;DHT22;16737;50.932;6.780;2024-01-30T03:56:07;10.20;93.70
9984;DHT22;16737;50.932;6.780;2024-01-30T03:58:34;10.20;93.70
9984;DHT22;16737;50.932;6.780;2024-01-30T04:01:01;10.20;93.80
9984;DHT22;16737;50.932;6.780;2024-01-30T04:03:29;10.20;93.80
9984;DHT22;16737;50.932;6.780;2024-01-30T04:05:58;10.20;93.80
9984;DHT22;16737;50.932;6.780;2024-01-30T04:08:27;10.20;93.90
9984;DHT22;16737;50.932;6.780;2024-01-30T04:10:54;10.20;93.90
9984;DHT22;16737;50.932;6.780;2024-01-30T04:13:21;10.20;93.90
9984;DHT22;16737;50.932;6.780;2024-01-30T04:15:48;10.20;93.90
9984;DHT22;16737;50.932;6.780;2024-01-30T04:18:15;10.20;93.90
9984;DHT22;16737;50.932;6.780;2024-01-30T04:20:42;10.20;93.80
9984;DHT22;16737;50.932;6.780;2024-01-30T04:23:10;10.10;93.70
9984;DHT22;16737;50.932;6.780;2024-01-30T04:25:37;10.20;93.80
9984;DHT22;16737;50.932;6.780;2024-01-30T04:28:04;10.10;93.70
9984;DHT22;16737;50.932;6.780;2024-01-30T04:30:31;10.10;93.60
9984;DHT22;16737;50.932;6.780;2024-01-30T04:32:58;10.10;93.70
9984;DHT22;16737;50.932;6.780;2024-01-30T04:35:25;10.10;93.70
9984;DHT22;16737;50.932;6.780;2024-01-30T04:37:52;10.00;93.70
9984;DHT22;16737;50.932;6.780;2024-01-30T04:40:21;10.00;93.80
9984;DHT22;16737;50.932;6.780;2024-01-30T04:42:49;10.00;93.80
9984;DHT22;16737;50.932;6.780;2024-01-30T04:45:16;10.00;93.80
9984;DHT22;16737;50.932;6.780;2024-01-30T04:47:43;10.00;93.90
9984;DHT22;16737;50.932;6.780;2024-01-30T04:50:10;10.00;93.80
9984;DHT22;16737;50.932;6.780;2024-01-30T04:52:37;9.90;94.30
9984;DHT22;16737;50.932;6.780;2024-01-30T04:55:05;9.90;94.30
9984;DHT22;16737;50.932;6.780;2024-01-30T04:57:34;9.90;94.30
9984;DHT22;16737;50.932;6.780;2024-01-30T05:00:02;9.90;94.30
9984;DHT22;16737;50.932;6.780;2024-01-30T05:02:30;9.90;94.20
9984;DHT22;16737;50.932;6.780;2024-01-30T05:04:58;9.80;94.10
9984;DHT22;16737;50.932;6.780;2024-01-30T05:07:25;9.80;94.20
9984;DHT22;16737;50.932;6.780;2024-01-30T05:09:52;9.80;94.20
9984;DHT22;16737;50.932;6.780;2024-01-30T05:12:20;9.80;94.30
9984;DHT22;16737;50.932;6.780;2024-01-30T05:14:49;9.70;94.30
9984;DHT22;16737;50.932;6.780;2024-01-30T05:17:16;9.70;94.40
9984;DHT22;16737;50.932;6.780;2024-01-30T05:19:43;9.70;94.40
9984;DHT22;16737;50.932;6.780;2024-01-30T05:22:10;9.70;94.50
9984;DHT22;16737;50.932;6.780;2024-01-30T05:24:41;9.70;94.50
9984;DHT22;16737;50.932;6.780;2024-01-30T05:27:08;9.70;94.50
9984;DHT22;16737;50.932;6.780;2024-01-30T05:29:37;9.70;94.50
9984;DHT22;16737;50.932;6.780;2024-01-30T05:32:05;9.70;94.50
9984;DHT22;16737;50.932;6.780;2024-01-30T05:34:33;9.60;94.40
9984;DHT22;16737;50.932;6.780;2024-01-30T05:37:00;9.60;94.40
9984;DHT22;16737;50.932;6.780;2024-01-30T05:39:28;9.60;94.40
9984;DHT22;16737;50.932;6.780;2024-01-30T05:41:55;9.60;94.40
9984;DHT22;16737;50.932;6.780;2024-01-30T05:44:22;9.50;94.40
9984;DHT22;16737;50.932;6.780;2024-01-30T05:46:48;9.50;94.50
9984;DHT22;16737;50.932;6.780;2024-01-30T05:49:17;9.50;94.60
9984;DHT22;16737;50.932;6.780;2024-01-30T05:51:44;9.50;94.80
9984;DHT22;16737;50.932;6.780;2024-01-30T05:54:11;9.50;94.80
9984;DHT22;16737;50.932;6.780;2024-01-30T05:56:39;9.50;95.00
9984;DHT22;16737;50.932;6.780;2024-01-30T05:59:06;9.50;95.00
9984;DHT22;16737;50.932;6.780;2024-01-30T06:01:33;9.50;95.00
9984;DHT22;16737;50.932;6.780;2024-01-30T06:04:00;9.60;95.00
9984;DHT22;16737;50.932;6.780;2024-01-30T06:06:29;9.60;95.00
9984;DHT22;16737;50.932;6.780;2024-01-30T06:08:56;9.60;95.00
9984;DHT22;16737;50.932;6.780;2024-01-30T06:11:23;9.60;94.90
9984;DHT22;16737;50.932;6.780;2024-01-30T06:13:50;9.60;94.80
9984;DHT22;16737;50.932;6.780;2024-01-30T06:16:17;9.60;94.80
9984;DHT22;16737;50.932;6.780;2024-01-30T06:18:46;9.60;94.80
9984;DHT22;16737;50.932;6.780;2024-01-30T06:21:13;9.50;94.80
9984;DHT22;16737;50.932;6.780;2024-01-30T06:23:43;9.50;94.80
9984;DHT22;16737;50.932;6.780;2024-01-30T06:26:10;9.50;94.80
9984;DHT22;16737;50.932;6.780;2024-01-30T06:28:37;9.50;94.80
9984;DHT22;16737;50.932;6.780;2024-01-30T06:31:04;9.50;94.90
9984;DHT22;16737;50.932;6.780;2024-01-30T06:33:31;9.50;95.00
9984;DHT22;16737;50.932;6.780;2024-01-30T06:35:58;9.40;95.10
9984;DHT22;16737;50.932;6.780;2024-01-30T06:38:25;9.50;95.20
9984;DHT22;16737;50.932;6.780;2024-01-30T06:40:53;9.50;95.20
9984;DHT22;16737;50.932;6.780;2024-01-30T06:43:20;9.50;95.30
9984;DHT22;16737;50.932;6.780;2024-01-30T06:45:48;9.50;95.20
9984;DHT22;16737;50.932;6.780;2024-01-30T06:48:17;9.50;95.30
9984;DHT22;16737;50.932;6.780;2024-01-30T06:50:46;9.50;95.30
9984;DHT22;16737;50.932;6.780;2024-01-30T06:53:14;9.50;95.30
9984;DHT22;16737;50.932;6.780;2024-01-30T06:55:41;9.50;95.30
9984;DHT22;16737;50.932;6.780;2024-01-30T06:58:10;9.50;95.20
9984;DHT22;16737;50.932;6.780;2024-01-30T07:00:37;9.50;95.20
9984;DHT22;16737;50.932;6.780;2024-01-30T07:03:04;9.50;95.10
9984;DHT22;16737;50.932;6.780;2024-01-30T07:05:31;9.60;95.10
9984;DHT22;16737;50.932;6.780;2024-01-30T07:07:59;9.50;95.20
9984;DHT22;16737;50.932;6.780;2024-01-30T07:10:26;9.50;95.20
9984;DHT22;16737;50.932;6.780;2024-01-30T07:12:52;9.60;95.40
9984;DHT22;16737;50.932;6.780;2024-01-30T07:15:21;9.50;95.40
9984;DHT22;16737;50.932;6.780;2024-01-30T07:17:48;9.60;95.60
9984;DHT22;16737;50.932;6.780;2024-01-30T07:20:15;9.60;95.60
9984;DHT22;16737;50.932;6.780;2024-01-30T07:22:45;9.60;95.60
9984;DHT22;16737;50.932;6.780;2024-01-30T07:25:13;9.60;95.70
9984;DHT22;16737;50.932;6.780;2024-01-30T07:27:40;9.70;95.80
9984;DHT22;16737;50.932;6.780;2024-01-30T07:30:08;9.70;95.80
9984;DHT22;16737;50.932;6.780;2024-01-30T07:32:36;9.80;95.80
9984;DHT22;16737;50.932;6.780;2024-01-30T07:35:04;9.80;95.80
9984;DHT22;16737;50.932;6.780;2024-01-30T07:37:31;9.80;95.80
9984;DHT22;16737;50.932;6.780;2024-01-30T07:39:58;9.90;95.80
9984;DHT22;16737;50.932;6.780;2024-01-30T07:42:25;9.90;95.70
9984;DHT22;16737;50.932;6.780;2024-01-30T07:44:52;9.90;95.70
9984;DHT22;16737;50.932;6.780;2024-01-30T07:47:19;10.00;95.20
9984;DHT22;16737;50.932;6.780;2024-01-30T07:49:48;10.00;95.20
9984;DHT22;16737;50.932;6.780;2024-01-30T07:52:15;10.00;95.30
9984;DHT22;16737;50.932;6.780;2024-01-30T07:54:42;10.00;95.30
9984;DHT22;16737;50.932;6.780;2024-01-30T07:57:09;10.00;95.30
9984;DHT22;16737;50.932;6.780;2024-01-30T07:59:36;10.00;95.30
9984;DHT22;16737;50.932;6.780;2024-01-30T08:02:05;10.10;95.30
9984;DHT22;16737;50.932;6.780;2024-01-30T08:04:32;10.10;95.30
9984;DHT22;16737;50.932;6.780;2024-01-30T08:07:01;10.10;95.50
9984;DHT22;16737;50.932;6.780;2024-01-30T08:09:28;10.10;95.30
9984;DHT22;16737;50.932;6.780;2024-01-30T08:11:55;10.10;95.30
9984;DHT22;16737;50.932;6.780;2024-01-30T08:14:22;10.10;95.30
9984;DHT22;16737;50.932;6.780;2024-01-30T08:16:49;10.10;95.30
9984;DHT22;16737;50.932;6.780;2024-01-30T08:19:16;10.20;95.30
9984;DHT22;16737;50.932;6.780;2024-01-30T08:21:43;10.20;95.60
9984;DHT22;16737;50.932;6.780;2024-01-30T08:24:11;10.20;95.30
9984;DHT22;16737;50.932;6.780;2024-01-30T08:26:38;10.20;95.40
9984;DHT22;16737;50.932;6.780;2024-01-30T08:29:05;10.20;95.30
9984;DHT22;16737;50.932;6.780;2024-01-30T08:31:32;10.20;95.40
9984;DHT22;16737;50.932;6.780;2024-01-30T08:33:59;10.20;95.40
9984;DHT22;16737;50.932;6.780;2024-01-30T08:36:26;10.20;95.40
9984;DHT22;16737;50.932;6.780;2024-01-30T08:38:54;10.20;95.40
9984;DHT22;16737;50.932;6.780;2024-01-30T08:41:23;10.20;95.40
9984;DHT22;16737;50.932;6.780;2024-01-30T08:43:50;10.20;95.50
9984;DHT22;16737;50.932;6.780;2024-01-30T08:46:18;10.20;95.50
9984;DHT22;16737;50.932;6.780;2024-01-30T08:48:46;10.20;95.50
9984;DHT22;16737;50.932;6.780;2024-01-30T08:51:13;10.30;95.50
9984;DHT22;16737;50.932;6.780;2024-01-30T08:53:40;10.30;95.50
9984;DHT22;16737;50.932;6.780;2024-01-30T08:56:08;10.30;95.60
9984;DHT22;16737;50.932;6.780;2024-01-30T08:58:37;10.40;95.70
9984;DHT22;16737;50.932;6.780;2024-01-30T09:01:04;10.40;95.70
9984;DHT22;16737;50.932;6.780;2024-01-30T09:03:31;10.40;95.70
9984;DHT22;16737;50.932;6.780;2024-01-30T09:06:00;10.50;95.70
9984;DHT22;16737;50.932;6.780;2024-01-30T09:08:27;10.50;95.80
9984;DHT22;16737;50.932;6.780;2024-01-30T09:10:54;10.50;95.80
9984;DHT22;16737;50.932;6.780;2024-01-30T09:13:21;10.60;95.80
9984;DHT22;16737;50.932;6.780;2024-01-30T09:15:49;10.60;95.90
9984;DHT22;16737;50.932;6.780;2024-01-30T09:18:16;10.70;95.90
9984;DHT22;16737;50.932;6.780;2024-01-30T09:20:44;10.70;95.90
9984;DHT22;16737;50.932;6.780;2024-01-30T09:23:13;10.80;96.00
9984;DHT22;16737;50.932;6.780;2024-01-30T09:25:40;10.80;96.30
9984;DHT22;16737;50.932;6.780;2024-01-30T09:28:06;10.90;96.10
9984;DHT22;16737;50.932;6.780;2024-01-30T09:30:34;10.90;96.10
9984;DHT22;16737;50.932;6.780;2024-01-30T09:33:03;11.00;96.10
9984;DHT22;16737;50.932;6.780;2024-01-30T09:35:30;11.10;96.20
9984;DHT22;16737;50.932;6.780;2024-01-30T09:37:57;11.10;96.10
9984;DHT22;16737;50.932;6.780;2024-01-30T09:40:25;11.20;96.20
9984;DHT22;16737;50.932;6.780;2024-01-30T09:42:52;11.20;96.00
9984;DHT22;16737;50.932;6.780;2024-01-30T09:45:24;11.30;96.10
9984;DHT22;16737;50.932;6.780;2024-01-30T09:47:52;11.30;96.10
9984;DHT22;16737;50.932;6.780;2024-01-30T09:50:21;11.40;96.10
9984;DHT22;16737;50.932;6.780;2024-01-30T09:52:49;11.40;96.10
9984;DHT22;16737;50.932;6.780;2024-01-30T09:55:18;11.50;96.10
9984;DHT22;16737;50.932;6.780;2024-01-30T09:57:45;11.50;96.10
9984;DHT22;16737;50.932;6.780;2024-01-30T10:00:13;11.60;96.10
9984;DHT22;16737;50.932;6.780;2024-01-30T10:02:40;11.60;96.10
9984;DHT22;16737;50.932;6.780;2024-01-30T10:05:08;11.70;96.10
9984;DHT22;16737;50.932;6.780;2024-01-30T10:07:36;11.70;96.10
9984;DHT22;16737;50.932;6.780;2024-01-30T10:10:06;11.80;96.10
9984;DHT22;16737;50.932;6.780;2024-01-30T10:12:33;11.80;96.10
9984;DHT22;16737;50.932;6.780;2024-01-30T10:15:00;11.80;96.10
9984;DHT22;16737;50.932;6.780;2024-01-30T10:17:28;11.80;96.00
9984;DHT22;16737;50.932;6.780;2024-01-30T10:19:55;11.90;96.10
9984;DHT22;16737;50.932;6.780;2024-01-30T10:22:23;11.90;96.10
9984;DHT22;16737;50.932;6.780;2024-01-30T10:24:51;11.90;96.00
9984;DHT22;16737;50.932;6.780;2024-01-30T10:27:25;12.00;96.10
9984;DHT22;16737;50.932;6.780;2024-01-30T10:29:52;12.00;96.10
9984;DHT22;16737;50.932;6.780;2024-01-30T10:32:20;12.00;96.00
9984;DHT22;16737;50.932;6.780;2024-01-30T10:34:47;12.00;96.00
9984;DHT22;16737;50.932;6.780;2024-01-30T10:37:15;12.00;96.10
9984;DHT22;16737;50.932;6.780;2024-01-30T10:39:43;12.10;96.20
9984;DHT22;16737;50.932;6.780;2024-01-30T10:42:15;12.10;96.20
9984;DHT22;16737;50.932;6.780;2024-01-30T10:44:52;12.20;96.30
9984;DHT22;16737;50.932;6.780;2024-01-30T10:47:27;12.20;96.40
9984;DHT22;16737;50.932;6.780;2024-01-30T10:49:56;12.30;96.30
9984;DHT22;16737;50.932;6.780;2024-01-30T10:52:24;12.40;96.30
9984;DHT22;16737;50.932;6.780;2024-01-30T10:54:53;12.40;96.30
9984;DHT22;16737;50.932;6.780;2024-01-30T10:57:23;12.50;96.40
9984;DHT22;16737;50.932;6.780;2024-01-30T10:59:53;12.50;96.40
9984;DHT22;16737;50.932;6.780;2024-01-30T11:02:22;12.60;96.40
9984;DHT22;16737;50.932;6.780;2024-01-30T11:04:55;12.60;96.30
9984;DHT22;16737;50.932;6.780;2024-01-30T11:07:25;12.70;96.40
9984;DHT22;16737;50.932;6.780;2024-01-30T11:09:53;12.70;96.30
9984;DHT22;16737;50.932;6.780;2024-01-30T11:12:29;12.80;96.30
9984;DHT22;16737;50.932;6.780;2024-01-30T11:15:03;12.80;96.40
9984;DHT22;16737;50.932;6.780;2024-01-30T11:17:44;12.80;96.40
9984;DHT22;16737;50.932;6.780;2024-01-30T11:20:18;12.90;96.50
9984;DHT22;16737;50.932;6.780;2024-01-30T11:22:47;12.90;96.40
9984;DHT22;16737;50.932;6.780;2024-01-30T11:25:16;13.00;96.50
9984;DHT22;16737;50.932;6.780;2024-01-30T11:27:46;13.10;96.60
9984;DHT22;16737;50.932;6.780;2024-01-30T11:30:23;13.10;96.60
9984;DHT22;16737;50.932;6.780;2024-01-30T11:33:01;13.20;96.70
9984;DHT22;16737;50.932;6.780;2024-01-30T11:35:32;13.20;96.70
9984;DHT22;16737;50.932;6.780;2024-01-30T11:38:00;13.30;96.60
9984;DHT22;16737;50.932;6.780;2024-01-30T11:40:28;13.30;96.50
9984;DHT22;16737;50.932;6.780;2024-01-30T11:42:59;13.40;96.60
9984;DHT22;16737;50.932;6.780;2024-01-30T11:45:26;13.50;96.60
9984;DHT22;16737;50.932;6.780;2024-01-30T11:47:54;13.50;96.60
9984;DHT22;16737;50.932;6.780;2024-01-30T11:50:22;13.60;96.70
9984;DHT22;16737;50.932;6.780;2024-01-30T11:52:49;13.60;96.70
9984;DHT22;16737;50.932;6.780;2024-01-30T11:55:16;13.70;96.70
9984;DHT22;16737;50.932;6.780;2024-01-30T11:57:44;13.80;96.70
9984;DHT22;16737;50.932;6.780;2024-01-30T12:00:16;13.80;96.70
9984;DHT22;16737;50.932;6.780;2024-01-30T12:02:49;13.90;96.80
9984;DHT22;16737;50.932;6.780;2024-01-30T12:05:19;13.90;96.70
9984;DHT22;16737;50.932;6.780;2024-01-30T12:07:47;14.00;96.80
9984;DHT22;16737;50.932;6.780;2024-01-30T12:10:14;14.00;97.00
9984;DHT22;16737;50.932;6.780;2024-01-30T12:12:44;14.10;96.70
9984;DHT22;16737;50.932;6.780;2024-01-30T12:15:14;14.10;96.70
9984;DHT22;16737;50.932;6.780;2024-01-30T12:17:42;14.20;96.70
9984;DHT22;16737;50.932;6.780;2024-01-30T12:20:10;14.20;96.60
9984;DHT22;16737;50.932;6.780;2024-01-30T12:22:40;14.20;96.60
9984;DHT22;16737;50.932;6.780;2024-01-30T12:25:09;14.30;96.70
9984;DHT22;16737;50.932;6.780;2024-01-30T12:27:38;14.30;96.70
9984;DHT22;16737;50.932;6.780;2024-01-30T12:30:06;14.40;96.70
9984;DHT22;16737;50.932;6.780;2024-01-30T12:32:36;14.40;96.60
9984;DHT22;16737;50.932;6.780;2024-01-30T12:35:04;14.50;96.70
9984;DHT22;16737;50.932;6.780;2024-01-30T12:37:34;14.50;96.60
9984;DHT22;16737;50.932;6.780;2024-01-30T12:40:01;14.60;96.60
9984;DHT22;16737;50.932;6.780;2024-01-30T12:42:29;14.70;96.70
9984;DHT22;16737;50.932;6.780;2024-01-30T12:44:57;14.70;96.60
9984;DHT22;16737;50.932;6.780;2024-01-30T12:47:25;14.80;96.60
9984;DHT22;16737;50.932;6.780;2024-01-30T12:49:54;14.80;96.60
9984;DHT22;16737;50.932;6.780;2024-01-30T12:52:21;14.90;96.60
9984;DHT22;16737;50.932;6.780;2024-01-30T12:54:50;15.00;96.60
9984;DHT22;16737;50.932;6.780;2024-01-30T12:57:18;15.00;96.60
9984;DHT22;16737;50.932;6.780;2024-01-30T12:59:46;15.10;96.50
9984;DHT22;16737;50.932;6.780;2024-01-30T13:02:13;15.10;96.50
9984;DHT22;16737;50.932;6.780;2024-01-30T13:04:42;15.10;96.40
9984;DHT22;16737;50.932;6.780;2024-01-30T13:07:10;15.20;96.40
9984;DHT22;16737;50.932;6.780;2024-01-30T13:09:37;15.20;96.30
9984;DHT22;16737;50.932;6.780;2024-01-30T13:12:05;15.30;96.30
9984;DHT22;16737;50.932;6.780;2024-01-30T13:14:32;15.30;96.30
9984;DHT22;16737;50.932;6.780;2024-01-30T13:16:59;15.30;96.30
9984;DHT22;16737;50.932;6.780;2024-01-30T13:19:27;15.40;96.20
9984;DHT22;16737;50.932;6.780;2024-01-30T13:21:54;15.40;96.20
9984;DHT22;16737;50.932;6.780;2024-01-30T13:24:23;15.40;96.10
9984;DHT22;16737;50.932;6.780;2024-01-30T13:26:50;15.40;96.10
9984;DHT22;16737;50.932;6.780;2024-01-30T13:29:18;15.40;96.10
9984;DHT22;16737;50.932;6.780;2024-01-30T13:31:45;15.40;96.00
9984;DHT22;16737;50.932;6.780;2024-01-30T13:34:12;15.40;96.00
9984;DHT22;16737;50.932;6.780;2024-01-30T13:36:40;15.40;96.00
9984;DHT22;16737;50.932;6.780;2024-01-30T13:39:08;15.40;96.00
9984;DHT22;16737;50.932;6.780;2024-01-30T13:41:39;15.50;96.00
9984;DHT22;16737;50.932;6.780;2024-01-30T13:44:06;15.40;96.10
9984;DHT22;16737;50.932;6.780;2024-01-30T13:46:34;15.40;95.90
9984;DHT22;16737;50.932;6.780;2024-01-30T13:49:01;15.50;95.90
9984;DHT22;16737;50.932;6.780;2024-01-30T13:51:28;15.40;95.80
9984;DHT22;16737;50.932;6.780;2024-01-30T13:53:56;15.40;95.80
9984;DHT22;16737;50.932;6.780;2024-01-30T13:56:23;15.40;95.80
9984;DHT22;16737;50.932;6.780;2024-01-30T13:58:53;15.40;95.80
9984;DHT22;16737;50.932;6.780;2024-01-30T14:01:22;15.50;95.80
9984;DHT22;16737;50.932;6.780;2024-01-30T14:03:49;15.50;95.80
9984;DHT22;16737;50.932;6.780;2024-01-30T14:06:17;15.50;95.80
9984;DHT22;16737;50.932;6.780;2024-01-30T14:08:44;15.40;95.70
9984;DHT22;16737;50.932;6.780;2024-01-30T14:11:11;15.40;95.70
9984;DHT22;16737;50.932;6.780;2024-01-30T14:13:38;15.40;95.70
9984;DHT22;16737;50.932;6.780;2024-01-30T14:16:06;15.40;95.70
9984;DHT22;16737;50.932;6.780;2024-01-30T14:18:34;15.40;95.70
9984;DHT22;16737;50.932;6.780;2024-01-30T14:21:01;15.40;95.70
9984;DHT22;16737;50.932;6.780;2024-01-30T14:23:32;15.40;95.70
9984;DHT22;16737;50.932;6.780;2024-01-30T14:26:00;15.40;95.70
9984;DHT22;16737;50.932;6.780;2024-01-30T14:28:27;15.40;95.70
9984;DHT22;16737;50.932;6.780;2024-01-30T14:30:54;15.40;95.70
9984;DHT22;16737;50.932;6.780;2024-01-30T14:33:22;15.40;95.70
9984;DHT22;16737;50.932;6.780;2024-01-30T14:35:49;15.40;95.70
9984;DHT22;16737;50.932;6.780;2024-01-30T14:38:17;15.40;95.80
9984;DHT22;16737;50.932;6.780;2024-01-30T14:40:44;15.40;96.10
9984;DHT22;16737;50.932;6.780;2024-01-30T14:43:11;15.40;95.70
9984;DHT22;16737;50.932;6.780;2024-01-30T14:45:39;15.40;95.70
9984;DHT22;16737;50.932;6.780;2024-01-30T14:48:07;15.40;95.70
9984;DHT22;16737;50.932;6.780;2024-01-30T14:50:37;15.40;95.70
9984;DHT22;16737;50.932;6.780;2024-01-30T14:53:04;15.40;95.70
9984;DHT22;16737;50.932;6.780;2024-01-30T14:55:31;15.40;95.70
9984;DHT22;16737;50.932;6.780;2024-01-30T15:01:53;15.40;95.70
9984;DHT22;16737;50.932;6.780;2024-01-30T16:17:16;14.40;95.00
9984;DHT22;16737;50.932;6.780;2024-01-30T16:19:43;14.20;94.90
9984;DHT22;16737;50.932;6.780;2024-01-30T16:22:12;14.20;94.90
9984;DHT22;16737;50.932;6.780;2024-01-30T16:27:43;14.10;94.90
9984;DHT22;16737;50.932;6.780;2024-01-30T16:30:11;14.10;94.90
9984;DHT22;16737;50.932;6.780;2024-01-30T16:32:41;14.10;95.00
9984;DHT22;16737;50.932;6.780;2024-01-30T16:35:07;14.00;94.90
9984;DHT22;16737;50.932;6.780;2024-01-30T16:37:34;14.00;94.90
9984;DHT22;16737;50.932;6.780;2024-01-30T16:40:01;14.00;94.80
9984;DHT22;16737;50.932;6.780;2024-01-30T16:42:29;13.90;94.70
9984;DHT22;16737;50.932;6.780;2024-01-30T16:44:57;13.90;94.70
9984;DHT22;16737;50.932;6.780;2024-01-30T16:47:24;13.90;94.60
9984;DHT22;16737;50.932;6.780;2024-01-30T16:49:52;13.90;94.60
9984;DHT22;16737;50.932;6.780;2024-01-30T16:52:19;13.80;94.50
9984;DHT22;16737;50.932;6.780;2024-01-30T16:54:47;13.80;94.50
9984;DHT22;16737;50.932;6.780;2024-01-30T16:57:14;13.80;94.40
9984;DHT22;16737;50.932;6.780;2024-01-30T16:59:41;13.80;94.40
9984;DHT22;16737;50.932;6.780;2024-01-30T17:02:08;13.80;94.40
9984;DHT22;16737;50.932;6.780;2024-01-30T17:04:35;13.70;94.60
9984;DHT22;16737;50.932;6.780;2024-01-30T17:07:03;13.70;94.30
9984;DHT22;16737;50.932;6.780;2024-01-30T17:09:30;13.70;94.30
9984;DHT22;16737;50.932;6.780;2024-01-30T17:11:58;13.70;94.30
9984;DHT22;16737;50.932;6.780;2024-01-30T17:14:25;13.70;94.30